Time;durP1;ratioP1;P1;durP2;ratioP2;P2;SDS_P1;SDS_P2;PMS_P1;PMS_P2;Temp;Humidity;BMP_temperature;BMP_pressure;BME280_temperature;BME280_humidity;BME280_pressure;Samples;Min_cycle;Max_cycle;Signal;HPM_P1;HPM_P2
2023/12/02 00:01:57;;;;;;;1163.00;50.57;;;;;-2.70;92448.00;;;;7397672;19;20596;-75
2023/12/02 00:04:31;;;;;;;842.27;41.77;;;;;-2.80;92447.00;;;;7398126;19;20495;-78
2023/12/02 00:07:11;;;;;;;909.63;46.10;;;;;-2.70;92430.00;;;;7395943;19;20233;-77
2023/12/02 00:09:53;;;;;;;1000.40;46.20;;;;;-2.80;92431.00;;;;7398265;19;20844;-77
2023/12/02 00:12:20;;;;;;;711.70;35.13;;;;;-2.80;92428.00;;;;7396871;19;20644;-76
2023/12/02 00:14:55;;;;;;;1565.63;77.10;;;;;-2.70;92430.00;;;;7397858;19;20124;-76
2023/12/02 00:17:23;;;;;;;719.33;35.57;;;;;-2.70;92424.00;;;;7397805;19;20188;-77
2023/12/02 00:19:57;;;;;;;292.57;23.37;;;;;-2.70;92423.00;;;;7397524;19;20124;-76
2023/12/02 00:22:25;;;;;;;649.20;34.73;;;;;-2.70;92419.00;;;;7394694;19;20149;-79
2023/12/02 00:24:59;;;;;;;698.73;37.10;;;;;-2.80;92432.00;;;;7398224;19;20140;-76
2023/12/02 00:27:33;;;;;;;396.63;29.77;;;;;-2.80;92444.00;;;;7398492;19;20687;-76
2023/12/02 00:30:01;;;;;;;321.17;24.47;;;;;-2.80;92439.00;;;;7397032;19;20133;-75
2023/12/02 00:32:35;;;;;;;415.47;25.67;;;;;-2.80;92439.00;;;;7396387;19;20136;-75
2023/12/02 00:35:11;;;;;;;319.70;25.17;;;;;-2.80;92436.00;;;;7397644;19;20208;-76
2023/12/02 00:37:45;;;;;;;299.73;23.87;;;;;-2.80;92455.00;;;;7396675;19;20185;-75
2023/12/02 00:40:21;;;;;;;117.67;16.77;;;;;-2.80;92450.00;;;;7398427;19;20611;-76
2023/12/02 00:42:56;;;;;;;205.73;20.47;;;;;-3.00;92454.00;;;;7395107;19;20463;-76
2023/12/02 00:45:24;;;;;;;225.80;19.20;;;;;-2.90;92461.00;;;;7397843;19;20144;-75
2023/12/02 00:47:52;;;;;;;278.37;22.33;;;;;-2.90;92474.00;;;;7386965;19;20158;-75
2023/12/02 00:50:26;;;;;;;83.77;16.37;;;;;-2.90;92465.00;;;;7397471;19;20133;-75
2023/12/02 00:53:00;;;;;;;41.23;14.53;;;;;-2.90;92461.00;;;;7396701;19;20160;-75
2023/12/02 00:55:29;;;;;;;777.00;39.67;;;;;-2.90;92470.00;;;;7398121;19;20632;-75
2023/12/02 00:58:04;;;;;;;335.83;26.23;;;;;-2.90;92455.00;;;;7396529;19;20580;-75
2023/12/02 01:00:38;;;;;;;361.30;26.10;;;;;-2.90;92463.00;;;;7397027;19;20124;-75
2023/12/02 01:03:12;;;;;;;581.27;29.97;;;;;-2.90;92467.00;;;;7394562;19;20519;-76
2023/12/02 01:05:47;;;;;;;114.63;16.53;;;;;-2.90;92468.00;;;;7396540;19;20133;-75
2023/12/02 01:08:27;;;;;;;164.17;16.73;;;;;-2.90;92462.00;;;;7395607;19;20591;-77
2023/12/02 01:10:55;;;;;;;215.07;17.93;;;;;-2.90;92467.00;;;;7399133;19;20129;-76
2023/12/02 01:13:30;;;;;;;98.90;14.53;;;;;-2.90;92471.00;;;;7396291;19;20148;-75
2023/12/02 01:15:57;;;;;;;458.43;27.07;;;;;-2.90;92463.00;;;;7397811;19;20129;-76
2023/12/02 01:18:32;;;;;;;342.60;19.93;;;;;-2.90;92461.00;;;;7397702;19;20136;-75
2023/12/02 01:20:59;;;;;;;276.53;19.80;;;;;-2.90;92453.00;;;;7397046;19;20133;-75
2023/12/02 01:23:34;;;;;;;542.07;31.57;;;;;-2.90;92458.00;;;;7395754;19;20124;-75
2023/12/02 01:26:01;;;;;;;531.73;27.77;;;;;-2.80;92456.00;;;;7395428;19;20557;-75
2023/12/02 01:28:30;;;;;;;717.97;37.10;;;;;-2.80;92459.00;;;;7396746;19;20124;-76
2023/12/02 01:31:05;;;;;;;753.40;42.60;;;;;-3.00;92471.00;;;;7398204;19;20161;-75
2023/12/02 01:33:33;;;;;;;443.00;23.73;;;;;-3.10;92475.00;;;;7405969;19;20129;-74
2023/12/02 01:36:01;;;;;;;368.07;23.57;;;;;-3.10;92464.00;;;;7404819;19;20157;-73
2023/12/02 01:38:36;;;;;;;241.03;19.63;;;;;-3.10;92466.00;;;;7401818;19;20141;-72
2023/12/02 01:41:10;;;;;;;40.80;12.07;;;;;-3.20;92478.00;;;;7403652;19;20196;-72
2023/12/02 01:43:44;;;;;;;35.03;12.33;;;;;-3.10;92487.00;;;;7401152;19;20133;-73
2023/12/02 01:46:17;;;;;;;46.17;12.33;;;;;-3.10;92496.00;;;;7403433;19;20193;-74
2023/12/02 01:48:55;;;;;;;90.93;14.63;;;;;-3.20;92498.00;;;;7401254;19;20200;-75
2023/12/02 01:51:29;;;;;;;21.97;11.77;;;;;-3.20;92492.00;;;;7403453;19;20194;-74
2023/12/02 01:54:04;;;;;;;19.07;10.50;;;;;-3.10;92490.00;;;;7403501;19;20490;-75
2023/12/02 01:56:33;;;;;;;23.70;11.50;;;;;-3.10;92488.00;;;;7403224;19;20627;-71
2023/12/02 01:59:11;;;;;;;41.47;11.20;;;;;-3.10;92481.00;;;;7398073;19;20137;-74
2023/12/02 02:01:45;;;;;;;140.80;13.53;;;;;-3.10;92477.00;;;;7402451;19;20528;-75
2023/12/02 02:04:19;;;;;;;271.93;20.07;;;;;-3.10;92488.00;;;;7403412;19;20140;-75
2023/12/02 02:07:00;;;;;;;32.90;10.83;;;;;-3.30;92494.00;;;;7400692;19;20136;-73
2023/12/02 02:09:49;;;;;;;141.67;14.97;;;;;-3.20;92501.00;;;;7402449;19;20476;-73
2023/12/02 02:12:23;;;;;;;286.17;20.10;;;;;-3.30;92495.00;;;;7400191;19;20145;-73
2023/12/02 02:14:57;;;;;;;206.00;14.63;;;;;-3.30;92500.00;;;;7401022;19;20628;-75
2023/12/02 02:17:25;;;;;;;247.33;15.37;;;;;-3.20;92500.00;;;;7401178;19;20194;-73
2023/12/02 02:20:02;;;;;;;26.40;9.23;;;;;-3.20;92498.00;;;;7402214;19;20144;-75
2023/12/02 02:22:36;;;;;;;229.63;15.60;;;;;-3.20;92499.00;;;;7401379;19;20145;-73
2023/12/02 02:25:11;;;;;;;191.80;14.90;;;;;-3.30;92500.00;;;;7400503;19;20588;-73
2023/12/02 02:27:45;;;;;;;355.50;19.77;;;;;-3.40;92504.00;;;;7402148;19;20599;-73
2023/12/02 02:30:22;;;;;;;424.13;23.63;;;;;-3.40;92501.00;;;;7401246;19;20155;-74
2023/12/02 02:32:49;;;;;;;264.10;18.93;;;;;-3.40;92500.00;;;;7401935;19;20577;-74
2023/12/02 02:35:24;;;;;;;511.80;25.77;;;;;-3.50;92502.00;;;;7401539;19;20136;-74
2023/12/02 02:37:58;;;;;;;313.10;19.00;;;;;-3.50;92497.00;;;;7400248;19;20599;-75
2023/12/02 02:40:32;;;;;;;196.50;14.80;;;;;-3.50;92500.00;;;;7401850;19;20204;-74
2023/12/02 02:42:59;;;;;;;61.30;11.20;;;;;-3.50;92499.00;;;;7399361;19;20149;-73
2023/12/02 02:45:27;;;;;;;427.30;22.93;;;;;-3.40;92508.00;;;;7412663;19;20136;-78
2023/12/02 02:48:02;;;;;;;302.80;19.67;;;;;-3.40;92510.00;;;;7436753;19;20136;-79
2023/12/02 02:50:32;;;;;;;154.60;15.63;;;;;-3.50;92504.00;;;;7436681;19;20168;-80
2023/12/02 02:53:00;;;;;;;31.03;11.20;;;;;-3.50;92510.00;;;;7432894;19;20152;-80
2023/12/02 02:55:37;;;;;;;299.43;18.97;;;;;-3.50;92513.00;;;;7436933;19;20138;-78
2023/12/02 02:58:11;;;;;;;559.50;27.40;;;;;-3.50;92505.00;;;;7412614;19;20255;-83
2023/12/02 03:00:45;;;;;;;153.17;14.57;;;;;-3.50;92524.00;;;;7402170;19;20145;-81
2023/12/02 03:03:13;;;;;;;330.47;19.90;;;;;-3.50;92514.00;;;;7400780;19;20628;-80
2023/12/02 03:05:47;;;;;;;274.63;18.80;;;;;-3.60;92522.00;;;;7399832;19;20196;-81
2023/12/02 03:08:25;;;;;;;551.90;26.20;;;;;-3.60;92526.00;;;;7398195;19;20154;-80
2023/12/02 03:10:57;;;;;;;642.70;28.87;;;;;-3.60;92528.00;;;;7401508;19;20455;-80
2023/12/02 03:13:31;;;;;;;553.20;28.20;;;;;-3.70;92518.00;;;;7398613;19;20507;-80
2023/12/02 03:16:01;;;;;;;375.93;20.77;;;;;-3.60;92512.00;;;;7401949;19;20197;-79
2023/12/02 03:18:35;;;;;;;146.90;12.27;;;;;-3.70;92523.00;;;;7398570;19;20144;-81
2023/12/02 03:21:05;;;;;;;280.13;16.07;;;;;-3.70;92516.00;;;;7402520;19;20492;-82
2023/12/02 03:23:41;;;;;;;359.80;19.70;;;;;-3.80;92512.00;;;;7401039;19;20177;-81
2023/12/02 03:26:10;;;;;;;591.60;31.20;;;;;-3.70;92508.00;;;;7398410;19;20212;-83
2023/12/02 03:28:45;;;;;;;104.67;12.37;;;;;-3.70;92513.00;;;;7400874;19;20147;-84
2023/12/02 03:31:16;;;;;;;287.33;17.10;;;;;-3.70;92524.00;;;;7401793;19;20151;-84
2023/12/02 03:33:50;;;;;;;229.67;15.63;;;;;-3.80;92525.00;;;;7402442;19;20133;-84
2023/12/02 03:36:18;;;;;;;418.63;23.13;;;;;-3.80;92532.00;;;;7402145;19;20196;-83
2023/12/02 03:38:52;;;;;;;434.70;23.17;;;;;-3.70;92528.00;;;;7398463;19;20464;-84
2023/12/02 03:41:22;;;;;;;333.27;19.20;;;;;-3.70;92523.00;;;;7402347;19;20156;-84
2023/12/02 03:44:04;;;;;;;254.87;19.20;;;;;-3.80;92525.00;;;;7398750;19;20133;-84
2023/12/02 03:46:42;;;;;;;240.90;17.73;;;;;-3.80;92529.00;;;;7402550;19;20148;-84
2023/12/02 03:49:16;;;;;;;602.97;29.13;;;;;-3.80;92530.00;;;;7402012;19;20132;-84
2023/12/02 03:51:45;;;;;;;644.23;32.63;;;;;-3.80;92545.00;;;;7401310;19;20149;-84
2023/12/02 03:54:19;;;;;;;405.00;21.70;;;;;-3.80;92538.00;;;;7399620;19;20177;-85
2023/12/02 03:56:55;;;;;;;314.60;18.77;;;;;-3.80;92541.00;;;;7401401;19;20484;-84
2023/12/02 03:59:31;;;;;;;686.93;32.13;;;;;-3.80;92543.00;;;;7399234;19;20170;-84
2023/12/02 04:02:05;;;;;;;460.33;23.93;;;;;-3.80;92539.00;;;;7401844;19;20188;-84
2023/12/02 04:04:39;;;;;;;346.43;20.93;;;;;-3.80;92557.00;;;;7399947;19;20133;-84
2023/12/02 04:07:13;;;;;;;477.07;25.00;;;;;-4.00;92545.00;;;;7397438;19;20156;-85
2023/12/02 04:09:43;;;;;;;251.10;17.13;;;;;-4.00;92564.00;;;;7397289;19;20493;-85
2023/12/02 04:12:11;;;;;;;83.00;10.50;;;;;-4.00;92561.00;;;;7402297;19;20141;-84
2023/12/02 04:14:45;;;;;;;52.90;11.30;;;;;-4.00;92557.00;;;;7399189;19;20124;-84
2023/12/02 04:17:19;;;;;;;33.13;9.83;;;;;-4.00;92560.00;;;;7401270;19;20148;-85
2023/12/02 04:19:53;;;;;;;45.33;12.80;;;;;-4.10;92556.00;;;;7398395;19;20184;-84
2023/12/02 04:22:31;;;;;;;233.77;19.77;;;;;-4.00;92554.00;;;;7399170;19;20140;-84
2023/12/02 04:25:01;;;;;;;324.60;21.90;;;;;-3.90;92564.00;;;;7397795;19;20160;-84
2023/12/02 04:27:36;;;;;;;79.93;13.03;;;;;-3.90;92565.00;;;;7395910;19;20157;-84
2023/12/02 04:30:04;;;;;;;312.73;19.27;;;;;-4.00;92560.00;;;;7398377;19;20120;-84
2023/12/02 04:32:38;;;;;;;964.83;40.40;;;;;-3.90;92577.00;;;;7401363;19;20140;-84
2023/12/02 04:35:07;;;;;;;464.43;23.97;;;;;-3.90;92583.00;;;;7400269;19;20597;-84
2023/12/02 04:37:41;;;;;;;297.37;18.40;;;;;-3.90;92590.00;;;;7403349;19;20163;-89
2023/12/02 04:40:11;;;;;;;163.03;13.77;;;;;-4.00;92589.00;;;;7400236;19;20145;-90
2023/12/02 04:42:46;;;;;;;316.83;19.93;;;;;-3.90;92595.00;;;;7408459;19;20153;-90
2023/12/02 04:45:13;;;;;;;63.53;13.57;;;;;-4.00;92603.00;;;;7403354;19;20192;-89
2023/12/02 04:47:48;;;;;;;105.27;13.50;;;;;-4.00;92606.00;;;;7404561;19;20144;-89
2023/12/02 04:50:15;;;;;;;46.90;12.00;;;;;-4.10;92609.00;;;;7404239;19;20498;-85
2023/12/02 04:52:43;;;;;;;723.40;32.87;;;;;-4.10;92609.00;;;;7403499;19;20484;-89
2023/12/02 04:55:17;;;;;;;394.33;22.13;;;;;-4.10;92602.00;;;;7403782;19;20173;-89
2023/12/02 04:57:57;;;;;;;151.00;13.53;;;;;-4.00;92604.00;;;;7403108;19;20165;-89
2023/12/02 05:00:32;;;;;;;31.43;11.10;;;;;-4.10;92615.00;;;;7404892;19;20499;-85
2023/12/02 05:03:00;;;;;;;23.23;11.83;;;;;-4.00;92613.00;;;;7405180;19;20143;-89
2023/12/02 05:05:34;;;;;;;71.67;15.23;;;;;-4.10;92623.00;;;;7405960;19;20131;-90
2023/12/02 05:08:08;;;;;;;21.13;11.53;;;;;-4.10;92631.00;;;;7411831;19;20154;-88
2023/12/02 05:10:42;;;;;;;63.23;13.00;;;;;-4.10;92638.00;;;;7411837;19;20137;-88
2023/12/02 05:13:16;;;;;;;285.93;19.93;;;;;-4.10;92642.00;;;;7411955;19;20480;-88
2023/12/02 05:15:50;;;;;;;289.67;20.43;;;;;-4.10;92625.00;;;;7415466;19;20131;-89
2023/12/02 05:18:24;;;;;;;176.67;16.53;;;;;-4.10;92627.00;;;;7412377;19;20164;-89
2023/12/02 05:20:52;;;;;;;367.37;23.20;;;;;-4.10;92631.00;;;;7410656;19;20148;-89
2023/12/02 05:23:26;;;;;;;171.67;14.40;;;;;-4.20;92644.00;;;;7415273;19;20647;-88
2023/12/02 05:25:54;;;;;;;303.10;18.37;;;;;-4.20;92645.00;;;;7425046;19;20145;-88
2023/12/02 05:28:29;;;;;;;299.53;20.33;;;;;-4.30;92655.00;;;;7418247;19;20128;-89
2023/12/02 05:30:59;;;;;;;259.20;17.87;;;;;-4.40;92653.00;;;;7418152;19;20152;-89
2023/12/02 05:33:32;;;;;;;280.77;19.37;;;;;-4.40;92655.00;;;;7416829;19;20171;-88
2023/12/02 05:36:00;;;;;;;170.37;14.77;;;;;-4.30;92664.00;;;;7414316;19;20615;-89
2023/12/02 05:38:34;;;;;;;176.03;15.77;;;;;-4.30;92665.00;;;;7416850;19;20143;-89
2023/12/02 05:41:10;;;;;;;93.13;12.53;;;;;-4.30;92661.00;;;;7416203;19;20161;-89
2023/12/02 05:43:44;;;;;;;177.63;14.97;;;;;-4.30;92666.00;;;;7414139;19;20154;-89
2023/12/02 05:46:19;;;;;;;82.37;13.70;;;;;-4.20;92668.00;;;;7413733;19;20225;-87
2023/12/02 05:48:46;;;;;;;69.13;11.37;;;;;-4.20;92674.00;;;;7408980;19;20596;-88
2023/12/02 05:51:14;;;;;;;80.67;12.57;;;;;-4.20;92677.00;;;;7410985;19;20133;-90
2023/12/02 05:53:48;;;;;;;106.53;12.83;;;;;-4.20;92681.00;;;;7409970;19;20157;-88
2023/12/02 05:56:19;;;;;;;156.97;13.53;;;;;-4.20;92685.00;;;;7403451;19;20145;-84
2023/12/02 05:58:59;;;;;;;129.73;13.00;;;;;-4.20;92688.00;;;;7401213;19;20187;-89
2023/12/02 06:01:27;;;;;;;111.23;11.37;;;;;-4.40;92698.00;;;;7403411;19;20129;-85
2023/12/02 06:04:10;;;;;;;104.03;11.97;;;;;-4.30;92694.00;;;;7405435;19;20177;-85
2023/12/02 06:06:44;;;;;;;423.90;22.00;;;;;-4.40;92700.00;;;;7406477;19;20213;-88
2023/12/02 06:09:18;;;;;;;99.60;11.77;;;;;-4.50;92702.00;;;;7406966;19;20141;-88
2023/12/02 06:11:46;;;;;;;431.93;22.57;;;;;-4.40;92704.00;;;;7407956;19;20169;-90
2023/12/02 06:14:20;;;;;;;440.17;21.23;;;;;-4.50;92712.00;;;;7408212;19;20149;-87
2023/12/02 06:16:56;;;;;;;209.50;13.90;;;;;-4.40;92710.00;;;;7404809;19;20135;-89
2023/12/02 06:19:30;;;;;;;134.83;12.23;;;;;-4.50;92710.00;;;;7404680;19;20144;-87
2023/12/02 06:21:58;;;;;;;164.30;13.17;;;;;-4.60;92706.00;;;;7404271;19;20201;-88
2023/12/02 06:24:31;;;;;;;256.00;17.23;;;;;-4.60;92708.00;;;;7407334;19;20154;-88
2023/12/02 06:27:06;;;;;;;111.13;12.30;;;;;-4.60;92707.00;;;;7404840;19;20613;-88
2023/12/02 06:29:43;;;;;;;264.10;17.27;;;;;-4.70;92706.00;;;;7406802;19;20147;-86
2023/12/02 06:32:11;;;;;;;281.37;17.10;;;;;-4.80;92714.00;;;;7407562;19;20204;-88
2023/12/02 06:34:48;;;;;;;268.90;17.10;;;;;-4.90;92713.00;;;;7413438;19;20155;-92
2023/12/02 06:37:16;;;;;;;114.20;12.27;;;;;-4.90;92720.00;;;;7411415;19;20214;-89
2023/12/02 06:39:44;;;;;;;91.83;11.17;;;;;-4.80;92722.00;;;;7412298;19;20182;-89
2023/12/02 06:42:18;;;;;;;193.97;15.17;;;;;-4.90;92728.00;;;;7414217;19;20266;-89
2023/12/02 06:44:52;;;;;;;62.17;9.80;;;;;-4.90;92737.00;;;;7413235;19;20188;-89
2023/12/02 06:47:26;;;;;;;66.27;10.17;;;;;-4.90;92724.00;;;;7412433;19;20209;-89
2023/12/02 06:50:00;;;;;;;15.37;7.93;;;;;-4.90;92745.00;;;;7414317;19;20176;-87
2023/12/02 06:52:28;;;;;;;22.90;9.27;;;;;-5.00;92738.00;;;;7412783;19;20132;-89
2023/12/02 06:55:03;;;;;;;17.03;7.70;;;;;-5.00;92754.00;;;;7412372;19;20231;-86
2023/12/02 06:57:34;;;;;;;22.10;8.53;;;;;-5.00;92762.00;;;;7409541;19;20177;-83
2023/12/02 07:00:21;;;;;;;14.90;7.70;;;;;-5.20;92766.00;;;;7402309;19;20208;-84
2023/12/02 07:02:50;;;;;;;13.60;8.03;;;;;-5.10;92763.00;;;;7403523;19;20143;-84
2023/12/02 07:05:25;;;;;;;12.27;6.70;;;;;-5.20;92768.00;;;;7400511;19;20143;-84
2023/12/02 07:07:53;;;;;;;12.63;6.73;;;;;-5.20;92767.00;;;;7399562;19;20584;-83
2023/12/02 07:10:21;;;;;;;14.10;8.07;;;;;-5.30;92771.00;;;;7404014;19;20187;-85
2023/12/02 07:12:58;;;;;;;13.10;7.80;;;;;-5.10;92774.00;;;;7400305;19;20174;-84
2023/12/02 07:15:26;;;;;;;14.17;8.13;;;;;-5.10;92775.00;;;;7399955;19;20145;-85
2023/12/02 07:18:00;;;;;;;12.90;7.53;;;;;-5.20;92771.00;;;;7398232;19;20148;-85
2023/12/02 07:20:37;;;;;;;12.80;7.73;;;;;-5.20;92779.00;;;;7397344;19;20158;-85
2023/12/02 07:23:13;;;;;;;15.10;8.83;;;;;-5.30;92789.00;;;;7398837;19;20474;-85
2023/12/02 07:25:41;;;;;;;15.47;8.93;;;;;-5.20;92780.00;;;;7396870;19;20139;-85
2023/12/02 07:28:15;;;;;;;24.40;9.27;;;;;-5.30;92784.00;;;;7404259;19;20175;-85
2023/12/02 07:30:51;;;;;;;13.67;8.90;;;;;-5.30;92780.00;;;;7406478;19;20152;-84
2023/12/02 07:33:26;;;;;;;15.93;9.23;;;;;-5.30;92786.00;;;;7403994;19;20151;-86
2023/12/02 07:35:59;;;;;;;63.93;11.83;;;;;-5.30;92784.00;;;;7406359;19;20141;-84
2023/12/02 07:38:35;;;;;;;26.50;9.90;;;;;-5.30;92792.00;;;;7405644;19;20157;-85
2023/12/02 07:41:09;;;;;;;20.70;9.00;;;;;-5.30;92801.00;;;;7402126;19;20136;-83
2023/12/02 07:43:39;;;;;;;25.33;9.87;;;;;-5.20;92811.00;;;;7400927;19;20144;-83
2023/12/02 07:46:20;;;;;;;72.93;12.50;;;;;-5.30;92810.00;;;;7401675;19;20183;-85
2023/12/02 07:49:04;;;;;;;24.17;10.03;;;;;-5.30;92814.00;;;;7405380;19;20145;-83
2023/12/02 07:51:41;;;;;;;33.63;9.90;;;;;-5.20;92828.00;;;;7402918;19;20158;-85
2023/12/02 07:54:11;;;;;;;175.10;15.67;;;;;-5.40;92825.00;;;;7402794;19;20158;-85
2023/12/02 07:56:39;;;;;;;150.10;13.87;;;;;-5.40;92839.00;;;;7403504;19;20560;-85
2023/12/02 07:59:37;;;;;;;23.63;9.87;;;;;-5.50;92839.00;;;;7406142;19;20287;-84
2023/12/02 08:02:12;;;;;;;139.60;14.57;;;;;-5.50;92840.00;;;;7405220;19;20144;-86
2023/12/02 08:04:47;;;;;;;14.27;8.77;;;;;-5.40;92836.00;;;;7404136;19;20150;-85
2023/12/02 08:07:24;;;;;;;50.23;11.20;;;;;-5.30;92839.00;;;;7400453;19;20540;-81
2023/12/02 08:09:52;;;;;;;61.13;12.53;;;;;-5.30;92841.00;;;;7396696;19;20138;-81
2023/12/02 08:12:26;;;;;;;19.80;10.07;;;;;-5.40;92847.00;;;;7397313;19;20250;-80
2023/12/02 08:14:54;;;;;;;63.07;11.20;;;;;-5.20;92841.00;;;;7398591;19;20158;-81
2023/12/02 08:17:24;;;;;;;60.27;11.70;;;;;-5.30;92854.00;;;;7397423;19;20149;-81
2023/12/02 08:19:58;;;;;;;19.83;11.17;;;;;-5.10;92850.00;;;;7397022;19;20149;-81
2023/12/02 08:22:29;;;;;;;17.87;10.07;;;;;-5.00;92853.00;;;;7397737;19;20229;-81
2023/12/02 08:25:04;;;;;;;33.60;10.80;;;;;-5.10;92852.00;;;;7395770;19;20131;-83
2023/12/02 08:27:31;;;;;;;19.80;10.90;;;;;-5.10;92864.00;;;;7396637;19;20162;-80
2023/12/02 08:30:07;;;;;;;38.33;11.77;;;;;-5.10;92860.00;;;;7397509;19;20142;-79
2023/12/02 08:32:45;;;;;;;77.23;13.63;;;;;-5.10;92860.00;;;;7398443;19;20136;-81
2023/12/02 08:35:21;;;;;;;130.80;14.43;;;;;-5.20;92875.00;;;;7394514;19;20298;-81
2023/12/02 08:37:52;;;;;;;59.63;12.83;;;;;-5.10;92872.00;;;;7397432;19;20463;-80
2023/12/02 08:40:21;;;;;;;17.90;9.90;;;;;-5.20;92878.00;;;;7397983;19;20159;-81
2023/12/02 08:42:55;;;;;;;53.70;11.60;;;;;-5.00;92876.00;;;;7404647;19;20143;-83
2023/12/02 08:45:23;;;;;;;71.37;12.03;;;;;-5.10;92897.00;;;;7400407;19;20148;-83
2023/12/02 08:47:51;;;;;;;21.67;11.60;;;;;-5.20;92896.00;;;;7402288;19;20136;-81
2023/12/02 08:50:27;;;;;;;84.93;12.80;;;;;-5.00;92891.00;;;;7401808;19;20150;-82
2023/12/02 08:52:56;;;;;;;22.43;10.70;;;;;-5.10;92898.00;;;;7400751;19;20500;-80
2023/12/02 08:55:30;;;;;;;24.00;10.50;;;;;-5.10;92905.00;;;;7402656;19;20607;-81
2023/12/02 08:58:13;;;;;;;15.57;9.53;;;;;-4.90;92909.00;;;;7404106;19;20138;-82
2023/12/02 09:00:54;;;;;;;22.77;10.23;;;;;-5.00;92916.00;;;;7402679;19;20151;-83
2023/12/02 09:03:32;;;;;;;67.30;12.77;;;;;-4.90;92923.00;;;;7403980;19;20746;-83
2023/12/02 09:06:07;;;;;;;18.33;10.50;;;;;-4.80;92925.00;;;;7400918;19;20145;-81
2023/12/02 09:08:35;;;;;;;65.73;13.17;;;;;-4.80;92926.00;;;;7401628;19;20145;-86
2023/12/02 09:11:10;;;;;;;68.60;12.80;;;;;-4.80;92922.00;;;;7400251;19;20703;-80
2023/12/02 09:13:49;;;;;;;23.53;10.13;;;;;-4.70;92930.00;;;;7401166;19;20131;-80
2023/12/02 09:16:28;;;;;;;18.53;10.17;;;;;-4.60;92932.00;;;;7400736;19;20140;-80
2023/12/02 09:18:57;;;;;;;19.00;10.27;;;;;-4.70;92943.00;;;;7401566;19;20143;-85
2023/12/02 09:21:41;;;;;;;18.57;10.03;;;;;-4.60;92946.00;;;;7404256;19;20133;-84
2023/12/02 09:24:36;;;;;;;32.10;10.83;;;;;-4.70;92948.00;;;;7399773;19;20147;-84
2023/12/02 09:27:51;;;;;;;24.20;9.73;;;;;-4.90;92953.00;;;;7402254;19;20896;-84
2023/12/02 09:30:19;;;;;;;20.50;10.37;;;;;-4.80;92952.00;;;;7403221;19;20244;-83
2023/12/02 09:32:53;;;;;;;23.37;9.20;;;;;-5.00;92964.00;;;;7404140;19;20155;-84
2023/12/02 09:35:22;;;;;;;22.17;9.93;;;;;-5.00;92974.00;;;;7404911;19;20143;-83
2023/12/02 09:38:00;;;;;;;19.37;10.33;;;;;-5.00;92970.00;;;;7406592;19;20165;-83
2023/12/02 09:40:44;;;;;;;21.70;9.23;;;;;-5.10;92975.00;;;;7412440;19;20123;-85
2023/12/02 09:43:25;;;;;;;57.87;11.47;;;;;-5.10;92984.00;;;;7411182;19;20488;-84
2023/12/02 09:46:23;;;;;;;14.10;9.07;;;;;-5.10;92986.00;;;;7408372;19;20660;-84
2023/12/02 09:49:31;;;;;;;25.67;9.07;;;;;-5.30;92989.00;;;;7407469;19;20166;-82
2023/12/02 09:52:15;;;;;;;40.20;10.53;;;;;-5.30;92992.00;;;;7408124;19;20496;-84
2023/12/02 09:54:56;;;;;;;13.00;8.03;;;;;-5.20;92994.00;;;;7407914;19;20141;-83
2023/12/02 09:57:57;;;;;;;15.20;9.20;;;;;-5.00;92986.00;;;;7405739;19;20167;-83
2023/12/02 10:00:53;;;;;;;15.13;8.63;;;;;-4.90;92978.00;;;;7403998;19;20151;-83
2023/12/02 10:03:50;;;;;;;13.27;8.50;;;;;-4.70;92987.00;;;;7403741;19;20139;-84
2023/12/02 10:07:03;;;;;;;13.33;8.03;;;;;-4.80;92991.00;;;;7402496;19;20161;-84
2023/12/02 10:09:49;;;;;;;11.23;7.47;;;;;-4.50;92985.00;;;;7403586;19;20158;-84
2023/12/02 10:12:24;;;;;;;11.93;8.00;;;;;-4.40;92971.00;;;;7404904;19;20661;-86
2023/12/02 10:15:05;;;;;;;13.10;8.00;;;;;-4.20;92966.00;;;;7400957;19;20130;-86
2023/12/02 10:17:52;;;;;;;20.03;7.83;;;;;-3.80;92976.00;;;;7401025;19;20623;-84
2023/12/02 10:20:35;;;;;;;13.50;7.80;;;;;-3.80;92979.00;;;;7398998;19;20177;-86
2023/12/02 10:23:25;;;;;;;11.83;7.77;;;;;-4.10;92991.00;;;;7398760;19;20173;-84
2023/12/02 10:26:07;;;;;;;19.93;7.90;;;;;-4.80;92994.00;;;;7397580;19;20121;-86
2023/12/02 10:28:55;;;;;;;11.93;7.60;;;;;-4.50;93000.00;;;;7404288;19;20147;-88
2023/12/02 10:31:31;;;;;;;14.73;6.73;;;;;-4.80;93000.00;;;;7407412;19;20160;-90
2023/12/02 10:34:28;;;;;;;10.80;6.77;;;;;-4.70;92999.00;;;;7405516;19;20152;-89
2023/12/02 10:37:04;;;;;;;10.27;7.13;;;;;-4.70;92998.00;;;;7410025;19;20228;-87
2023/12/02 10:39:50;;;;;;;8.63;6.17;;;;;-4.80;92996.00;;;;7405064;19;20144;-86
2023/12/02 10:42:29;;;;;;;11.80;6.97;;;;;-4.90;92999.00;;;;7404972;19;20185;-89
2023/12/02 10:45:08;;;;;;;9.87;6.17;;;;;-4.80;92998.00;;;;7404892;19;20562;-89
2023/12/02 10:47:40;;;;;;;11.10;7.17;;;;;-4.70;93011.00;;;;7403894;19;20148;-87
2023/12/02 10:50:16;;;;;;;9.87;6.77;;;;;-5.00;93017.00;;;;7407848;19;20151;-89
2023/12/02 10:53:09;;;;;;;9.67;6.37;;;;;-4.90;93019.00;;;;7416389;19;20147;-90
2023/12/02 10:55:46;;;;;;;10.83;6.67;;;;;-4.80;93024.00;;;;7416922;19;20158;-86
2023/12/02 10:58:14;;;;;;;9.20;6.37;;;;;-4.70;93025.00;;;;7419146;19;20157;-88
2023/12/02 11:01:01;;;;;;;14.10;6.93;;;;;-4.70;93024.00;;;;7413860;19;20146;-88
2023/12/02 11:04:02;;;;;;;9.37;6.07;;;;;-5.00;93021.00;;;;7414481;19;20184;-89
2023/12/02 11:06:39;;;;;;;9.80;6.27;;;;;-5.00;93034.00;;;;7418271;19;20140;-89
2023/12/02 11:09:29;;;;;;;12.60;6.67;;;;;-5.10;93030.00;;;;7418893;19;20626;-88
2023/12/02 11:12:06;;;;;;;8.20;5.60;;;;;-5.10;93038.00;;;;7418266;19;20162;-87
2023/12/02 11:14:42;;;;;;;10.37;6.73;;;;;-5.20;93048.00;;;;7417333;19;20144;-89
2023/12/02 11:17:29;;;;;;;8.90;6.27;;;;;-5.00;93051.00;;;;7419806;19;20164;-87
2023/12/02 11:20:26;;;;;;;10.10;6.40;;;;;-5.00;93051.00;;;;7412321;19;20406;-87
2023/12/02 11:23:00;;;;;;;10.03;6.40;;;;;-5.10;93054.00;;;;7412392;19;21332;-86
2023/12/02 11:26:09;;;;;;;8.47;5.47;;;;;-5.10;93066.00;;;;7413256;19;20144;-85
2023/12/02 11:28:54;;;;;;;10.07;6.47;;;;;-5.10;93064.00;;;;7415043;19;20153;-88
2023/12/02 11:32:28;;;;;;;16.60;6.27;;;;;-5.10;93082.00;;;;7416035;19;20152;-87
2023/12/02 11:35:24;;;;;;;10.10;6.47;;;;;-5.20;93077.00;;;;7412314;19;20157;-89
2023/12/02 11:38:19;;;;;;;9.10;5.80;;;;;-5.30;93084.00;;;;7412860;19;20154;-82
2023/12/02 11:40:56;;;;;;;8.00;5.73;;;;;-5.20;93080.00;;;;7399699;19;20142;-81
2023/12/02 11:44:12;;;;;;;8.63;5.23;;;;;-5.00;93004.00;;;;7397715;19;20166;-82
2023/12/02 11:47:26;;;;;;;9.63;5.90;;;;;-4.90;93095.00;;;;7399291;19;20156;-82
2023/12/02 11:50:28;;;;;;;9.27;6.00;;;;;-5.00;93093.00;;;;7404760;19;20162;-82
2023/12/02 11:53:32;;;;;;;8.97;5.50;;;;;-4.90;93098.00;;;;7398180;19;20591;-81
2023/12/02 11:56:11;;;;;;;11.30;6.17;;;;;-4.70;93105.00;;;;7402020;19;20151;-80
2023/12/02 11:59:21;;;;;;;8.77;6.10;;;;;-4.70;93107.00;;;;7401443;19;20182;-82
2023/12/02 12:02:36;;;;;;;7.80;5.17;;;;;-4.70;93110.00;;;;7400484;19;20147;-81
2023/12/02 12:05:57;;;;;;;11.17;6.03;;;;;-4.60;93109.00;;;;7403236;19;20124;-81
2023/12/02 12:08:41;;;;;;;9.47;6.33;;;;;-4.80;93117.00;;;;7400192;19;20141;-83
2023/12/02 12:11:19;;;;;;;10.30;6.90;;;;;-4.90;93131.00;;;;7403945;19;20148;-81
2023/12/02 12:13:57;;;;;;;13.93;7.23;;;;;-5.00;93132.00;;;;7402538;19;20151;-82
2023/12/02 12:16:40;;;;;;;9.03;6.03;;;;;-4.70;93131.00;;;;7400875;19;20164;-82
2023/12/02 12:19:14;;;;;;;9.13;6.40;;;;;-4.30;93131.00;;;;7399350;19;20148;-82
2023/12/02 12:21:50;;;;;;;9.07;6.87;;;;;-4.20;93137.00;;;;7401010;19;20624;-81
2023/12/02 12:24:25;;;;;;;10.60;6.60;;;;;-4.70;93141.00;;;;7404935;19;20144;-81
2023/12/02 12:27:03;;;;;;;14.97;6.83;;;;;-4.80;93157.00;;;;7400898;19;20608;-81
2023/12/02 12:29:58;;;;;;;9.20;6.43;;;;;-4.80;93157.00;;;;7402288;19;20167;-82
2023/12/02 12:32:26;;;;;;;8.87;6.17;;;;;-4.80;93162.00;;;;7397096;19;20152;-82
2023/12/02 12:35:11;;;;;;;9.30;7.00;;;;;-4.80;93157.00;;;;7402588;19;20143;-83
2023/12/02 12:37:47;;;;;;;9.57;7.30;;;;;-4.90;93178.00;;;;7405433;19;20614;-81
2023/12/02 12:40:23;;;;;;;11.53;7.63;;;;;-5.10;93169.00;;;;7402194;19;20604;-83
2023/12/02 12:42:50;;;;;;;9.37;6.40;;;;;-5.10;93185.00;;;;7405735;19;20135;-81
2023/12/02 12:45:30;;;;;;;10.73;7.07;;;;;-5.00;93178.00;;;;7401162;19;20144;-82